createdAt,value
2022-07-31T00:00:20.469Z,94487.72
2022-07-31T00:02:22.140Z,94489.13
2022-07-31T00:04:24.111Z,94498.97
2022-07-31T00:06:25.897Z,94497.91
2022-07-31T00:08:27.698Z,94483.56
2022-07-31T00:10:29.513Z,94482.50
2022-07-31T00:12:31.420Z,94475.91
2022-07-31T00:14:33.059Z,94482.88
2022-07-31T00:16:34.994Z,94487.50
2022-07-31T00:18:36.772Z,94489.00
2022-07-31T00:20:38.463Z,94498.06
2022-07-31T00:22:41.278Z,94504.19
2022-07-31T00:24:42.871Z,94505.47
2022-07-31T00:26:44.489Z,94501.75
2022-07-31T00:28:47.812Z,94510.06
2022-07-31T00:30:49.532Z,94511.56
2022-07-31T00:32:51.989Z,94501.50
2022-07-31T00:34:53.885Z,94494.56
2022-07-31T00:36:55.580Z,94502.06
2022-07-31T00:38:57.333Z,94510.06
2022-07-31T00:40:58.987Z,94506.97
2022-07-31T00:43:00.569Z,94510.44
2022-07-31T00:45:02.322Z,94513.44
2022-07-31T00:47:04.840Z,94510.44
2022-07-31T00:49:12.593Z,94510.44
2022-07-31T00:51:14.348Z,94501.03
2022-07-31T00:53:16.023Z,94510.06
2022-07-31T00:55:17.669Z,94516.66
2022-07-31T00:57:19.523Z,94512.41
2022-07-31T00:59:24.753Z,94511.44
2022-07-31T01:01:27.811Z,94510.28
2022-07-31T01:03:29.695Z,94511.34
2022-07-31T01:05:31.575Z,94515.59
2022-07-31T01:07:33.280Z,94517.69
2022-07-31T01:09:34.959Z,94525.91
2022-07-31T01:11:45.233Z,94526.59
2022-07-31T01:13:57.333Z,94523.91
2022-07-31T01:16:00.249Z,94519.88
2022-07-31T01:18:02.033Z,94513.38
2022-07-31T01:20:04.323Z,94504.56
2022-07-31T01:22:33.676Z,94508.41
2022-07-31T01:25:04.458Z,94505.28
2022-07-31T01:27:27.734Z,94516.06
2022-07-31T01:29:33.014Z,94526.72
2022-07-31T01:31:54.080Z,94523.34
2022-07-31T01:34:28.227Z,94516.41
2022-07-31T01:36:35.210Z,94516.97
2022-07-31T01:38:42.509Z,94529.72
2022-07-31T01:40:51.073Z,94527.84
2022-07-31T01:42:57.061Z,94515.44
2022-07-31T01:45:00.765Z,94511.19
2022-07-31T01:47:03.877Z,94507.81
2022-07-31T01:49:06.188Z,94508.75
2022-07-31T01:51:09.040Z,94510.28
2022-07-31T01:53:14.292Z,94504.47
2022-07-31T01:55:16.888Z,94501.00
2022-07-31T01:57:19.130Z,94505.28
2022-07-31T01:59:22.811Z,94511.41
2022-07-31T02:01:27.515Z,94510.38
2022-07-31T02:03:43.950Z,94514.66
2022-07-31T02:05:47.998Z,94516.06
2022-07-31T02:07:49.858Z,94515.25
2022-07-31T02:09:58.863Z,94516.88
2022-07-31T02:12:01.359Z,94507.13
2022-07-31T02:14:05.414Z,94519.69
2022-07-31T02:16:07.340Z,94512.50
2022-07-31T02:18:10.608Z,94513.19
2022-07-31T02:20:13.299Z,94514.88
2022-07-31T02:22:15.523Z,94515.47
2022-07-31T02:24:17.743Z,94510.22
2022-07-31T02:26:19.672Z,94518.41
2022-07-31T02:28:22.301Z,94520.13
2022-07-31T02:30:26.373Z,94514.81
2022-07-31T02:32:28.749Z,94518.72
2022-07-31T02:34:31.313Z,94532.16
2022-07-31T02:36:34.475Z,94533.63
2022-07-31T02:38:36.464Z,94533.78
2022-07-31T02:40:39.866Z,94533.06
2022-07-31T02:42:46.082Z,94529.97
2022-07-31T02:44:47.737Z,94528.28
2022-07-31T02:46:49.542Z,94531.69
2022-07-31T02:48:51.791Z,94531.53
2022-07-31T02:50:53.735Z,94531.13
2022-07-31T02:52:55.557Z,94532.00
2022-07-31T02:54:58.402Z,94533.44
2022-07-31T02:57:00.131Z,94535.28
2022-07-31T02:59:02.713Z,94528.38
2022-07-31T03:01:06.091Z,94535.53
2022-07-31T03:03:07.893Z,94528.31
2022-07-31T03:05:09.705Z,94527.81
2022-07-31T03:07:11.517Z,94526.47
2022-07-31T03:09:13.189Z,94532.88
2022-07-31T03:11:15.079Z,94536.44
2022-07-31T03:13:17.347Z,94537.63
2022-07-31T03:15:21.444Z,94533.66
2022-07-31T03:17:23.655Z,94531.28
2022-07-31T03:19:40.265Z,94541.03
2022-07-31T03:21:42.193Z,94536.13
2022-07-31T03:23:43.962Z,94537.53
2022-07-31T03:25:46.141Z,94538.72
2022-07-31T03:27:55.628Z,94547.06
2022-07-31T03:29:58.397Z,94544.56
2022-07-31T03:32:00.983Z,94543.81
2022-07-31T03:34:02.836Z,94551.72
2022-07-31T03:36:04.679Z,94552.00
2022-07-31T03:38:38.352Z,94548.34
2022-07-31T03:40:28.113Z,94552.50
2022-07-31T03:42:30.053Z,94546.38
2022-07-31T03:44:32.889Z,94553.75
2022-07-31T03:46:34.812Z,94548.47
2022-07-31T03:48:36.598Z,94565.63
2022-07-31T03:50:39.176Z,94563.56
2022-07-31T03:52:40.969Z,94556.53
2022-07-31T03:54:42.925Z,94565.66
2022-07-31T03:56:48.673Z,94560.94
2022-07-31T03:58:52.582Z,94569.88
2022-07-31T04:00:54.556Z,94576.44
2022-07-31T04:02:57.672Z,94570.47
2022-07-31T04:04:59.574Z,94562.47
2022-07-31T04:07:01.297Z,94567.09
2022-07-31T04:09:18.578Z,94565.69
2022-07-31T04:11:20.357Z,94570.19
2022-07-31T04:13:22.023Z,94567.09
2022-07-31T04:15:24.207Z,94579.31
2022-07-31T04:17:26.045Z,94577.81
2022-07-31T04:19:31.072Z,94573.75
2022-07-31T04:21:32.748Z,94573.75
2022-07-31T04:23:34.411Z,94568.03
2022-07-31T04:25:36.075Z,94567.19
2022-07-31T04:27:48.828Z,94561.56
2022-07-31T04:29:50.696Z,94566.56
2022-07-31T04:31:55.993Z,94564.09
2022-07-31T04:33:58.108Z,94557.72
2022-07-31T04:35:59.754Z,94556.19
2022-07-31T04:38:01.605Z,94556.38
2022-07-31T04:40:03.951Z,94564.47
2022-07-31T04:42:10.720Z,94557.28
2022-07-31T04:44:13.207Z,94556.34
2022-07-31T04:46:17.719Z,94554.22
2022-07-31T04:48:19.641Z,94547.59
2022-07-31T04:50:21.431Z,94567.16
2022-07-31T04:52:23.060Z,94554.09
2022-07-31T04:54:24.784Z,94556.22
2022-07-31T04:56:42.394Z,94558.44
2022-07-31T04:58:44.040Z,94559.41
2022-07-31T05:00:45.649Z,94573.81
2022-07-31T05:02:47.392Z,94570.94
2022-07-31T05:04:56.302Z,94576.38
2022-07-31T05:06:59.024Z,94572.47
2022-07-31T05:09:03.356Z,94577.16
2022-07-31T05:11:23.562Z,94575.00
2022-07-31T05:13:25.209Z,94580.97
2022-07-31T05:15:27.424Z,94569.84
2022-07-31T05:17:29.042Z,94573.78
2022-07-31T05:19:30.814Z,94568.84
2022-07-31T05:21:32.706Z,94565.28
2022-07-31T05:23:34.963Z,94563.22
2022-07-31T05:25:36.733Z,94566.72
2022-07-31T05:27:39.167Z,94565.44
2022-07-31T05:29:43.091Z,94570.91
2022-07-31T05:32:00.555Z,94573.69
2022-07-31T05:34:02.805Z,94570.44
2022-07-31T05:36:05.114Z,94563.00
2022-07-31T05:38:06.742Z,94565.03
2022-07-31T05:40:13.780Z,94560.34
2022-07-31T05:42:15.437Z,94570.47
2022-07-31T05:44:17.118Z,94565.63
2022-07-31T05:46:18.944Z,94561.91
2022-07-31T05:48:20.762Z,94568.81
2022-07-31T05:50:23.229Z,94559.03
2022-07-31T05:52:24.926Z,94561.63
2022-07-31T05:54:26.668Z,94564.75
2022-07-31T05:56:28.358Z,94564.34
2022-07-31T05:58:30.084Z,94566.53
2022-07-31T06:00:32.265Z,94564.13
2022-07-31T06:02:34.768Z,94568.97
2022-07-31T06:04:36.457Z,94577.28
2022-07-31T06:06:38.082Z,94570.94
2022-07-31T06:08:39.781Z,94577.25
2022-07-31T06:10:41.681Z,94566.16
2022-07-31T06:12:43.385Z,94562.91
2022-07-31T06:14:45.366Z,94562.28
2022-07-31T06:16:49.749Z,94565.75
2022-07-31T06:18:52.096Z,94561.38
2022-07-31T06:20:53.770Z,94565.06
2022-07-31T06:22:55.726Z,94572.34
2022-07-31T06:24:57.419Z,94568.16
2022-07-31T06:27:00.080Z,94569.31
2022-07-31T06:29:01.709Z,94567.13
2022-07-31T06:31:03.353Z,94560.84
2022-07-31T06:33:08.458Z,94559.59
2022-07-31T06:35:11.606Z,94560.53
2022-07-31T06:37:13.269Z,94559.50
2022-07-31T06:39:14.905Z,94561.47
2022-07-31T06:41:34.829Z,94552.50
2022-07-31T06:43:36.497Z,94552.50
2022-07-31T06:45:51.079Z,94561.22
2022-07-31T06:47:54.375Z,94557.84
2022-07-31T06:49:56.413Z,94559.81
2022-07-31T06:51:58.086Z,94561.44
2022-07-31T06:54:05.303Z,94559.25
2022-07-31T06:56:11.902Z,94561.09
2022-07-31T06:58:13.541Z,94567.72
2022-07-31T07:00:20.406Z,94573.97
2022-07-31T07:02:22.615Z,94574.75
2022-07-31T07:04:24.210Z,94580.09
2022-07-31T07:06:45.838Z,94575.22
2022-07-31T07:08:47.752Z,94580.78
2022-07-31T07:10:49.456Z,94574.59
2022-07-31T07:12:51.176Z,94586.56
2022-07-31T07:14:52.991Z,94591.47
2022-07-31T07:16:54.651Z,94591.28
2022-07-31T07:18:56.291Z,94583.94
2022-07-31T07:20:58.333Z,94582.47
2022-07-31T07:23:00.019Z,94587.31
2022-07-31T07:25:01.853Z,94581.06
2022-07-31T07:27:03.613Z,94581.84
2022-07-31T07:29:05.303Z,94585.81
2022-07-31T07:31:07.138Z,94585.91
2022-07-31T07:33:08.842Z,94598.31
2022-07-31T07:35:12.559Z,94594.00
2022-07-31T07:37:14.188Z,94594.03
2022-07-31T07:39:15.892Z,94585.47
2022-07-31T07:41:18.550Z,94586.63
2022-07-31T07:43:20.720Z,94595.06
2022-07-31T07:45:22.615Z,94580.59
2022-07-31T07:47:24.325Z,94575.09
2022-07-31T07:49:26.016Z,94577.63
2022-07-31T07:51:27.845Z,94587.06
2022-07-31T07:53:29.565Z,94578.13
2022-07-31T07:55:37.360Z,94585.78
2022-07-31T07:57:40.088Z,94587.28
2022-07-31T07:59:42.460Z,94595.16
2022-07-31T08:01:44.098Z,94590.75
2022-07-31T08:03:48.390Z,94592.16
2022-07-31T08:05:53.258Z,94595.97
2022-07-31T08:07:54.962Z,94593.69
2022-07-31T08:09:57.954Z,94599.91
2022-07-31T08:12:00.586Z,94598.47
2022-07-31T08:14:02.262Z,94601.56
2022-07-31T08:16:04.239Z,94601.03
2022-07-31T08:18:27.269Z,94605.53
2022-07-31T08:20:30.422Z,94604.13
2022-07-31T08:22:32.073Z,94600.91
2022-07-31T08:24:34.103Z,94603.69
2022-07-31T08:26:54.594Z,94605.75
2022-07-31T08:28:56.192Z,94602.28
2022-07-31T08:30:57.878Z,94601.38
2022-07-31T08:32:59.484Z,94599.03
2022-07-31T08:35:02.812Z,94601.19
2022-07-31T08:38:01.692Z,94600.91
2022-07-31T08:39:28.303Z,94606.47
2022-07-31T08:41:30.354Z,94613.91
2022-07-31T08:44:01.335Z,94608.78
2022-07-31T08:45:54.073Z,94610.53
2022-07-31T08:47:56.811Z,94606.94
2022-07-31T08:49:58.914Z,94612.72
2022-07-31T08:52:02.484Z,94600.63
2022-07-31T08:54:10.707Z,94610.50
2022-07-31T08:56:13.084Z,94604.84
2022-07-31T08:58:14.770Z,94591.59
2022-07-31T09:00:17.670Z,94596.25
2022-07-31T09:02:19.437Z,94600.69
2022-07-31T09:04:21.085Z,94603.72
2022-07-31T09:06:22.753Z,94604.63
2022-07-31T09:08:24.410Z,94600.22
2022-07-31T09:10:27.648Z,94598.81
2022-07-31T09:12:34.678Z,94613.59
2022-07-31T09:14:36.791Z,94606.41
2022-07-31T09:16:46.824Z,94603.38
2022-07-31T09:19:02.911Z,94607.50
2022-07-31T09:21:24.654Z,94605.97
2022-07-31T09:23:27.832Z,94603.94
2022-07-31T09:25:29.736Z,94605.16
2022-07-31T09:27:31.355Z,94605.44
2022-07-31T09:29:40.912Z,94602.44
2022-07-31T09:31:42.618Z,94592.53
2022-07-31T09:33:46.406Z,94591.19
2022-07-31T09:35:52.747Z,94588.78
2022-07-31T09:37:54.385Z,94583.91
2022-07-31T09:39:57.325Z,94583.53
2022-07-31T09:42:01.720Z,94581.84
2022-07-31T09:44:18.313Z,94585.50
2022-07-31T09:46:27.772Z,94575.84
2022-07-31T09:48:29.931Z,94578.91
2022-07-31T09:50:33.140Z,94583.97
2022-07-31T09:52:35.923Z,94592.78
2022-07-31T09:54:37.797Z,94579.66
2022-07-31T09:56:39.442Z,94583.00
2022-07-31T09:58:41.711Z,94573.31
2022-07-31T10:00:43.678Z,94577.06
2022-07-31T10:02:45.706Z,94576.47
2022-07-31T10:04:48.626Z,94576.94
2022-07-31T10:06:51.671Z,94566.38
2022-07-31T10:08:54.097Z,94571.72
2022-07-31T10:10:55.911Z,94560.09
2022-07-31T10:13:00.411Z,94562.97
2022-07-31T10:15:06.681Z,94555.06
2022-07-31T10:17:09.466Z,94559.19
2022-07-31T10:19:12.913Z,94567.03
2022-07-31T10:21:15.971Z,94559.91
2022-07-31T10:23:24.001Z,94568.31
2022-07-31T10:25:28.193Z,94552.53
2022-07-31T10:27:29.929Z,94552.03
2022-07-31T10:29:32.898Z,94544.50
2022-07-31T10:31:34.976Z,94542.13
2022-07-31T10:33:45.014Z,94541.81
2022-07-31T10:36:09.495Z,94542.09
2022-07-31T10:38:30.537Z,94534.72
2022-07-31T10:40:45.460Z,94529.63
2022-07-31T10:43:13.446Z,94534.72
2022-07-31T10:45:15.928Z,94531.44
2022-07-31T10:47:18.670Z,94528.19
2022-07-31T10:49:38.585Z,94527.13
2022-07-31T10:51:50.134Z,94522.78
2022-07-31T10:53:59.534Z,94523.13
2022-07-31T10:56:04.063Z,94528.16
2022-07-31T10:58:10.941Z,94525.94
2022-07-31T11:00:17.370Z,94515.16
2022-07-31T11:02:32.255Z,94514.63
2022-07-31T11:04:33.988Z,94525.22
2022-07-31T11:06:44.504Z,94513.38
2022-07-31T11:08:48.247Z,94519.03
2022-07-31T11:10:52.145Z,94518.19
2022-07-31T11:13:05.103Z,94511.59
2022-07-31T11:15:18.505Z,94519.28
2022-07-31T11:18:22.429Z,94510.66
2022-07-31T11:19:52.845Z,94503.59
2022-07-31T11:21:57.362Z,94502.69
2022-07-31T11:24:04.260Z,94501.19
2022-07-31T11:26:08.874Z,94499.13
2022-07-31T11:28:21.395Z,94499.13
2022-07-31T11:30:23.088Z,94497.81
2022-07-31T11:32:25.875Z,94495.72
2022-07-31T11:34:27.992Z,94489.53
2022-07-31T11:36:30.006Z,94500.72
2022-07-31T11:38:31.676Z,94481.78
2022-07-31T11:40:33.408Z,94488.66
2022-07-31T11:42:42.569Z,94476.19
2022-07-31T11:44:44.239Z,94485.31
2022-07-31T11:46:45.950Z,94477.53
2022-07-31T11:48:47.615Z,94484.53
2022-07-31T11:50:50.595Z,94485.78
2022-07-31T11:53:02.503Z,94478.78
2022-07-31T11:55:09.838Z,94471.84
2022-07-31T11:57:11.688Z,94470.81
2022-07-31T11:59:42.737Z,94467.25
2022-07-31T12:01:35.059Z,94472.66
2022-07-31T12:03:38.147Z,94472.72
2022-07-31T12:05:45.240Z,94466.34
2022-07-31T12:07:46.952Z,94470.72
2022-07-31T12:10:01.779Z,94464.94
2022-07-31T12:12:05.919Z,94464.22
2022-07-31T12:14:08.155Z,94455.78
2022-07-31T12:16:11.311Z,94464.84
2022-07-31T12:18:13.031Z,94461.56
2022-07-31T12:20:29.796Z,94448.69
2022-07-31T12:22:36.822Z,94450.03
2022-07-31T12:24:39.524Z,94438.84
2022-07-31T12:26:44.413Z,94457.41
2022-07-31T12:29:16.321Z,94444.34
2022-07-31T12:31:18.144Z,94442.44
2022-07-31T12:33:19.757Z,94442.84
2022-07-31T12:35:21.434Z,94435.06
2022-07-31T12:37:23.159Z,94439.84
2022-07-31T12:39:24.882Z,94442.22
2022-07-31T12:41:46.534Z,94432.66
2022-07-31T12:43:50.132Z,94434.72
2022-07-31T12:45:54.345Z,94425.47
2022-07-31T12:47:56.305Z,94433.81
2022-07-31T12:49:58.734Z,94440.22
2022-07-31T12:52:00.376Z,94420.38
2022-07-31T12:54:05.729Z,94422.44
2022-07-31T12:56:11.758Z,94409.78
2022-07-31T12:58:13.404Z,94426.06
2022-07-31T13:00:16.046Z,94415.13
2022-07-31T13:02:17.827Z,94419.16
2022-07-31T13:04:19.758Z,94415.72
2022-07-31T13:06:22.568Z,94417.09
2022-07-31T13:08:24.219Z,94420.50
2022-07-31T13:10:31.810Z,94413.47
2022-07-31T13:12:34.643Z,94416.03
2022-07-31T13:14:36.381Z,94413.84
2022-07-31T13:16:38.129Z,94412.97
2022-07-31T13:18:40.057Z,94406.22
2022-07-31T13:20:41.716Z,94400.09
2022-07-31T13:22:43.368Z,94414.63
2022-07-31T13:24:44.996Z,94418.88
2022-07-31T13:26:47.356Z,94423.69
2022-07-31T13:28:49.044Z,94416.59
2022-07-31T13:30:54.947Z,94412.84
2022-07-31T13:32:56.947Z,94420.09
2022-07-31T13:35:25.886Z,94415.94
2022-07-31T13:37:20.530Z,94416.00
2022-07-31T13:39:22.387Z,94410.91
2022-07-31T13:41:24.245Z,94418.19
2022-07-31T13:43:25.910Z,94407.97
2022-07-31T13:45:27.546Z,94410.13
2022-07-31T13:47:51.576Z,94414.97
2022-07-31T13:49:50.859Z,94410.38
2022-07-31T13:51:52.495Z,94399.94
2022-07-31T13:53:54.128Z,94406.53
2022-07-31T13:55:56.680Z,94427.19
2022-07-31T13:58:01.000Z,94413.78
2022-07-31T14:00:03.670Z,94404.72
2022-07-31T14:02:05.831Z,94409.34
2022-07-31T14:04:07.600Z,94411.75
2022-07-31T14:06:09.440Z,94413.97
2022-07-31T14:08:30.533Z,94419.88
2022-07-31T14:10:32.901Z,94419.03
2022-07-31T14:12:37.267Z,94414.50
2022-07-31T14:14:38.910Z,94412.47
2022-07-31T14:16:42.073Z,94400.91
2022-07-31T14:18:43.726Z,94405.28
2022-07-31T14:20:46.274Z,94405.38
2022-07-31T14:22:48.048Z,94396.25
2022-07-31T14:24:51.281Z,94403.53
2022-07-31T14:26:53.042Z,94414.00
2022-07-31T14:28:54.713Z,94398.69
2022-07-31T14:30:56.360Z,94391.94
2022-07-31T14:32:58.210Z,94397.88
2022-07-31T14:35:02.364Z,94387.88
2022-07-31T14:37:06.661Z,94396.25
2022-07-31T14:39:08.480Z,94394.66
2022-07-31T14:41:10.126Z,94384.44
2022-07-31T14:43:12.608Z,94387.09
2022-07-31T14:45:15.047Z,94397.59
2022-07-31T14:47:17.111Z,94400.31
2022-07-31T14:49:18.764Z,94394.41
2022-07-31T14:51:20.535Z,94400.28
2022-07-31T14:53:22.278Z,94392.47
2022-07-31T14:55:25.324Z,94397.25
2022-07-31T14:57:31.605Z,94402.06
2022-07-31T14:59:33.342Z,94403.66
2022-07-31T15:01:35.021Z,94396.16
2022-07-31T15:03:36.845Z,94407.41
2022-07-31T15:06:41.397Z,94399.34
2022-07-31T15:08:03.659Z,94393.38
2022-07-31T15:10:06.556Z,94393.16
2022-07-31T15:12:08.809Z,94386.75
2022-07-31T15:14:10.487Z,94393.19
2022-07-31T15:16:12.131Z,94384.34
2022-07-31T15:18:13.806Z,94375.44
2022-07-31T15:20:15.680Z,94379.22
2022-07-31T15:22:19.246Z,94379.78
2022-07-31T15:24:20.958Z,94375.19
2022-07-31T15:26:22.715Z,94380.28
2022-07-31T15:28:24.372Z,94377.38
2022-07-31T15:30:26.042Z,94378.50
2022-07-31T15:32:27.789Z,94373.09
2022-07-31T15:34:29.567Z,94378.94
2022-07-31T15:36:31.232Z,94372.44
2022-07-31T15:38:32.978Z,94383.19
2022-07-31T15:40:35.219Z,94380.63
2022-07-31T15:42:40.489Z,94375.78
2022-07-31T15:44:42.399Z,94373.66
2022-07-31T15:46:44.080Z,94373.66
2022-07-31T15:48:45.863Z,94371.81
2022-07-31T15:50:47.538Z,94377.44
2022-07-31T15:52:50.143Z,94366.94
2022-07-31T15:54:52.845Z,94372.56
2022-07-31T15:56:54.667Z,94368.25
2022-07-31T15:58:56.729Z,94368.53
2022-07-31T16:00:58.718Z,94366.28
2022-07-31T16:03:01.452Z,94368.94
2022-07-31T16:05:11.800Z,94356.97
2022-07-31T16:08:32.999Z,94365.56
2022-07-31T16:10:03.993Z,94368.25
2022-07-31T16:12:06.835Z,94360.72
2022-07-31T16:14:10.428Z,94372.56
2022-07-31T16:16:12.025Z,94367.88
2022-07-31T16:18:18.106Z,94368.97
2022-07-31T16:20:26.677Z,94366.03
2022-07-31T16:22:28.708Z,94368.91
2022-07-31T16:24:30.387Z,94373.72
2022-07-31T16:26:33.466Z,94374.47
2022-07-31T16:28:35.079Z,94363.22
2022-07-31T16:30:36.885Z,94369.38
2022-07-31T16:32:38.552Z,94373.63
2022-07-31T16:34:40.951Z,94374.63
2022-07-31T16:36:44.182Z,94380.28
2022-07-31T16:38:59.470Z,94370.56
2022-07-31T16:41:07.452Z,94371.34
2022-07-31T16:43:50.091Z,94373.13
2022-07-31T16:45:30.936Z,94381.34
2022-07-31T16:47:51.200Z,94379.53
2022-07-31T16:49:54.078Z,94382.78
2022-07-31T16:51:55.733Z,94387.00
2022-07-31T16:54:13.452Z,94390.47
2022-07-31T16:56:18.043Z,94393.94
2022-07-31T16:58:24.667Z,94379.72
2022-07-31T17:00:26.726Z,94392.38
2022-07-31T17:02:28.459Z,94391.84
2022-07-31T17:04:30.146Z,94391.31
2022-07-31T17:06:36.367Z,94402.38
2022-07-31T17:08:39.272Z,94403.19
2022-07-31T17:10:41.120Z,94405.66
2022-07-31T17:12:42.878Z,94402.97
2022-07-31T17:14:44.585Z,94408.06
2022-07-31T17:16:49.320Z,94407.50
2022-07-31T17:18:52.555Z,94410.75
2022-07-31T17:20:56.866Z,94404.84
2022-07-31T17:22:58.905Z,94415.88
2022-07-31T17:25:01.804Z,94409.97
2022-07-31T17:27:05.553Z,94422.06
2022-07-31T17:29:07.491Z,94411.84
2022-07-31T17:31:09.168Z,94427.69
2022-07-31T17:33:12.042Z,94431.72
2022-07-31T17:35:13.778Z,94429.84
2022-07-31T17:37:19.223Z,94436.28
2022-07-31T17:39:20.906Z,94433.03
2022-07-31T17:41:25.348Z,94436.50
2022-07-31T17:43:27.909Z,94440.75
2022-07-31T17:45:59.580Z,94449.56
2022-07-31T17:48:08.507Z,94444.91
2022-07-31T17:50:10.246Z,94445.59
2022-07-31T17:52:12.457Z,94446.84
2022-07-31T17:54:14.428Z,94445.69
2022-07-31T17:56:16.494Z,94449.31
2022-07-31T17:58:18.158Z,94440.69
2022-07-31T18:00:19.875Z,94440.66
2022-07-31T18:02:21.777Z,94441.09
2022-07-31T18:04:23.451Z,94449.09
2022-07-31T18:06:25.358Z,94452.53
2022-07-31T18:08:29.294Z,94441.00
2022-07-31T18:10:53.055Z,94445.56
2022-07-31T18:12:57.508Z,94457.34
2022-07-31T18:14:59.898Z,94449.03
2022-07-31T18:17:02.109Z,94456.50
2022-07-31T18:19:03.790Z,94456.75
2022-07-31T18:21:05.484Z,94466.38
2022-07-31T18:23:10.139Z,94463.66
2022-07-31T18:25:12.303Z,94465.69
2022-07-31T18:27:14.039Z,94464.91
2022-07-31T18:29:17.125Z,94467.03
2022-07-31T18:31:34.656Z,94473.50
2022-07-31T18:33:42.526Z,94475.09
2022-07-31T18:35:44.744Z,94477.25
2022-07-31T18:37:46.669Z,94483.91
2022-07-31T18:39:49.386Z,94484.09
2022-07-31T18:41:51.360Z,94483.53
2022-07-31T18:43:53.095Z,94489.19
2022-07-31T18:45:54.814Z,94493.97
2022-07-31T18:47:56.493Z,94496.09
2022-07-31T18:50:59.712Z,94499.25
2022-07-31T18:52:20.031Z,94497.09
2022-07-31T18:54:21.698Z,94504.75
2022-07-31T18:56:24.618Z,94503.84
2022-07-31T18:58:26.366Z,94513.75
2022-07-31T19:00:28.620Z,94511.09
2022-07-31T19:02:30.417Z,94513.94
2022-07-31T19:04:32.155Z,94516.31
2022-07-31T19:06:33.833Z,94515.47
2022-07-31T19:08:35.481Z,94517.56
2022-07-31T19:10:38.258Z,94520.97
2022-07-31T19:12:40.016Z,94525.22
2022-07-31T19:14:41.719Z,94527.00
2022-07-31T19:16:43.874Z,94528.50
2022-07-31T19:18:50.225Z,94533.53
2022-07-31T19:21:00.103Z,94531.41
2022-07-31T19:23:14.393Z,94526.81
2022-07-31T19:25:16.028Z,94532.41
2022-07-31T19:27:18.459Z,94538.72
2022-07-31T19:29:20.746Z,94540.84
2022-07-31T19:31:22.761Z,94546.19
2022-07-31T19:33:24.832Z,94546.94
2022-07-31T19:35:26.598Z,94546.00
2022-07-31T19:37:28.283Z,94548.94
2022-07-31T19:39:29.977Z,94552.91
2022-07-31T19:41:33.328Z,94544.56
2022-07-31T19:43:35.899Z,94553.72
2022-07-31T19:45:37.590Z,94547.25
2022-07-31T19:47:59.366Z,94555.19
2022-07-31T19:50:01.341Z,94551.38
2022-07-31T19:52:03.270Z,94554.06
2022-07-31T19:54:05.255Z,94561.91
2022-07-31T19:56:07.023Z,94560.25
2022-07-31T19:58:08.761Z,94562.28
2022-07-31T20:00:12.629Z,94562.84
2022-07-31T20:02:16.982Z,94562.69
2022-07-31T20:04:18.843Z,94568.50
2022-07-31T20:06:20.565Z,94557.75
2022-07-31T20:08:23.048Z,94562.81
2022-07-31T20:10:25.439Z,94562.38
2022-07-31T20:12:27.125Z,94556.44
2022-07-31T20:14:28.761Z,94565.03
2022-07-31T20:16:30.879Z,94560.97
2022-07-31T20:18:32.694Z,94554.50
2022-07-31T20:20:34.354Z,94560.66
2022-07-31T20:22:35.959Z,94556.69
2022-07-31T20:24:38.709Z,94554.00
2022-07-31T20:26:40.355Z,94556.34
2022-07-31T20:28:42.570Z,94555.53
2022-07-31T20:30:44.295Z,94562.38
2022-07-31T20:32:48.366Z,94559.84
2022-07-31T20:34:50.418Z,94558.25
2022-07-31T20:36:52.862Z,94558.41
2022-07-31T20:38:55.676Z,94559.09
2022-07-31T20:40:57.327Z,94557.41
2022-07-31T20:42:59.096Z,94557.63
2022-07-31T20:45:00.742Z,94557.41
2022-07-31T20:47:02.360Z,94556.41
2022-07-31T20:49:04.220Z,94567.44
2022-07-31T20:51:09.136Z,94553.06
2022-07-31T20:53:10.773Z,94558.06
2022-07-31T20:55:12.458Z,94560.59
2022-07-31T20:57:15.760Z,94565.16
2022-07-31T20:59:17.505Z,94568.75
2022-07-31T21:01:21.354Z,94566.56
2022-07-31T21:03:23.129Z,94572.25
2022-07-31T21:05:29.270Z,94580.50
2022-07-31T21:07:30.995Z,94568.31
2022-07-31T21:09:33.079Z,94575.75
2022-07-31T21:11:34.681Z,94573.66
2022-07-31T21:13:36.413Z,94586.44
2022-07-31T21:15:43.229Z,94580.56
2022-07-31T21:17:46.240Z,94573.72
2022-07-31T21:19:47.984Z,94582.53
2022-07-31T21:21:51.134Z,94582.28
2022-07-31T21:23:52.883Z,94580.78
2022-07-31T21:25:57.207Z,94588.44
2022-07-31T21:27:59.208Z,94578.81
2022-07-31T21:30:01.217Z,94576.59
2022-07-31T21:32:03.288Z,94585.47
2022-07-31T21:34:05.364Z,94577.22
2022-07-31T21:36:07.485Z,94578.75
2022-07-31T21:38:14.735Z,94578.75
2022-07-31T21:40:16.876Z,94578.03
2022-07-31T21:42:19.029Z,94575.59
2022-07-31T21:44:20.843Z,94581.50
2022-07-31T21:46:24.237Z,94577.47
2022-07-31T21:48:27.265Z,94577.00
2022-07-31T21:50:29.531Z,94575.84
2022-07-31T21:52:31.269Z,94578.63
2022-07-31T21:54:32.993Z,94575.47
2022-07-31T21:56:34.782Z,94568.66
2022-07-31T21:58:36.960Z,94580.38
2022-07-31T22:00:38.707Z,94568.19
2022-07-31T22:02:43.024Z,94570.03
2022-07-31T22:05:03.411Z,94576.19
2022-07-31T22:07:23.854Z,94575.94
2022-07-31T22:09:26.581Z,94578.03
2022-07-31T22:11:28.372Z,94575.13
2022-07-31T22:13:30.020Z,94568.53
2022-07-31T22:15:50.443Z,94573.53
2022-07-31T22:17:53.517Z,94574.78
2022-07-31T22:19:58.647Z,94575.16
2022-07-31T22:22:01.156Z,94573.31
2022-07-31T22:24:03.694Z,94574.00
2022-07-31T22:26:05.594Z,94577.72
2022-07-31T22:28:07.671Z,94567.59
2022-07-31T22:30:10.649Z,94577.09
2022-07-31T22:32:12.499Z,94580.69
2022-07-31T22:34:14.273Z,94581.84
2022-07-31T22:36:35.935Z,94575.50
2022-07-31T22:38:38.207Z,94573.06
2022-07-31T22:40:44.015Z,94569.56
2022-07-31T22:42:57.505Z,94573.88
2022-07-31T22:45:00.095Z,94569.34
2022-07-31T22:47:01.929Z,94568.31
2022-07-31T22:49:06.138Z,94565.97
2022-07-31T22:51:08.935Z,94565.97
2022-07-31T22:53:12.288Z,94566.56
2022-07-31T22:55:14.139Z,94566.56
2022-07-31T22:57:16.384Z,94568.44
2022-07-31T22:59:18.283Z,94572.63
2022-07-31T23:01:19.880Z,94570.63
2022-07-31T23:03:21.480Z,94567.50
2022-07-31T23:05:23.253Z,94570.16
2022-07-31T23:07:24.926Z,94569.47
2022-07-31T23:09:26.606Z,94574.44
2022-07-31T23:11:28.335Z,94573.88
2022-07-31T23:13:30.070Z,94570.50
2022-07-31T23:15:31.815Z,94571.22
2022-07-31T23:17:33.488Z,94570.41
2022-07-31T23:19:35.142Z,94574.09
2022-07-31T23:21:36.877Z,94573.88
2022-07-31T23:23:38.521Z,94576.19
2022-07-31T23:25:40.155Z,94573.63
2022-07-31T23:27:41.812Z,94578.59
2022-07-31T23:29:43.469Z,94583.81
2022-07-31T23:31:45.122Z,94581.63
2022-07-31T23:33:47.427Z,94577.31
2022-07-31T23:35:49.071Z,94580.56
2022-07-31T23:37:50.747Z,94578.97
2022-07-31T23:39:52.432Z,94581.50
2022-07-31T23:42:12.945Z,94578.00
2022-07-31T23:44:17.744Z,94579.88
2022-07-31T23:46:26.896Z,94572.91
2022-07-31T23:48:29.930Z,94569.22
2022-07-31T23:50:32.003Z,94571.88
2022-07-31T23:52:33.583Z,94566.56
2022-07-31T23:54:35.178Z,94562.38
2022-07-31T23:56:36.948Z,94563.78
2022-07-31T23:58:38.588Z,94562.97
